Terminal Aerodrome Forecast
Issued by NWS Cleveland, OH

Home | Current Version | Previous Version | Graphics & Text | Print | Product List | Glossary On
Versions: 1 2 3 4 5 6 7 8 9 10 11 12 13 14 15 16 17 18 19
746
FTUS41 KCLE 201735
TAFYNG
TAF
KYNG 201735Z 2018/2118 20008KT P6SM OVC040
      TEMPO 2020/2023 BKN025
     FM202300 20008KT 5SM -SHRA OVC015
     FM210400 VRB05KT 3SM BR OVC006
     FM211500 35008KT P6SM OVC012=

USA.gov is the U.S. government's official web portal to all federal, state and local government web resources and services.